createdAt,value
2022-07-27T00:01:22.968Z,76.01
2022-07-27T00:03:51.537Z,75.82
2022-07-27T00:06:20.160Z,75.52
2022-07-27T00:08:48.813Z,76.41
2022-07-27T00:11:16.616Z,77.41
2022-07-27T00:13:47.059Z,77.27
2022-07-27T00:16:15.245Z,78.05
2022-07-27T00:18:43.923Z,78.65
2022-07-27T00:21:13.051Z,78.58
2022-07-27T00:23:42.116Z,79.35
2022-07-27T00:26:10.782Z,79.55
2022-07-27T00:28:39.678Z,79.30
2022-07-27T00:31:07.690Z,79.20
2022-07-27T00:33:36.370Z,78.96
2022-07-27T00:36:05.900Z,80.08
2022-07-27T00:38:33.704Z,80.40
2022-07-27T00:41:02.449Z,80.58
2022-07-27T00:43:31.144Z,79.23
2022-07-27T00:46:00.146Z,80.64
2022-07-27T00:48:32.460Z,81.62
2022-07-27T00:51:01.248Z,81.24
2022-07-27T00:53:29.880Z,80.88
2022-07-27T00:55:59.510Z,80.94
2022-07-27T00:58:28.511Z,79.89
2022-07-27T01:00:57.069Z,79.13
2022-07-27T01:03:29.807Z,78.41
2022-07-27T01:05:59.262Z,78.26
2022-07-27T01:08:28.869Z,77.65
2022-07-27T01:10:58.692Z,79.55
2022-07-27T01:13:27.353Z,79.44
2022-07-27T01:15:56.695Z,80.71
2022-07-27T01:18:37.705Z,79.81
2022-07-27T01:21:10.415Z,79.78
2022-07-27T01:23:39.002Z,80.67
2022-07-27T01:26:07.989Z,80.91
2022-07-27T01:28:36.593Z,80.41
2022-07-27T01:31:05.259Z,78.89
2022-07-27T01:33:33.015Z,79.22
2022-07-27T01:36:00.773Z,78.94
2022-07-27T01:38:29.736Z,79.46
2022-07-27T01:40:58.598Z,80.29
2022-07-27T01:43:27.234Z,82.06
2022-07-27T01:45:56.368Z,84.22
2022-07-27T01:48:25.320Z,83.57
2022-07-27T01:50:55.215Z,81.51
2022-07-27T01:53:24.495Z,81.10
2022-07-27T01:55:53.149Z,82.70
2022-07-27T01:58:21.828Z,82.60
2022-07-27T02:00:50.500Z,81.92
2022-07-27T02:03:19.416Z,83.57
2022-07-27T02:05:48.172Z,83.91
2022-07-27T02:08:16.166Z,83.37
2022-07-27T02:11:03.541Z,82.34
2022-07-27T02:13:32.084Z,82.33
2022-07-27T02:16:01.990Z,83.18
2022-07-27T02:18:33.025Z,85.61
2022-07-27T02:21:06.858Z,85.35
2022-07-27T02:23:37.694Z,85.77
2022-07-27T02:26:08.844Z,87.04
2022-07-27T02:28:37.125Z,84.89
2022-07-27T02:31:05.346Z,84.03
2022-07-27T02:33:34.265Z,84.17
2022-07-27T02:36:03.554Z,83.12
2022-07-27T02:38:32.092Z,83.34
2022-07-27T02:41:00.720Z,83.81
2022-07-27T02:43:28.913Z,85.15
2022-07-27T02:45:57.570Z,84.00
2022-07-27T02:48:25.524Z,82.34
2022-07-27T02:50:54.246Z,80.39
2022-07-27T02:53:22.750Z,79.33
2022-07-27T02:55:51.240Z,81.50
2022-07-27T02:58:18.963Z,80.09
2022-07-27T03:00:47.269Z,80.44
2022-07-27T03:03:16.216Z,79.05
2022-07-27T03:05:45.142Z,79.09
2022-07-27T03:08:13.762Z,78.38
2022-07-27T03:10:48.641Z,79.00
2022-07-27T03:13:16.950Z,78.52
2022-07-27T03:15:45.633Z,78.38
2022-07-27T03:18:14.198Z,77.82
2022-07-27T03:20:43.002Z,77.42
2022-07-27T03:23:10.825Z,77.22
2022-07-27T03:25:39.793Z,76.57
2022-07-27T03:28:08.498Z,76.66
2022-07-27T03:30:37.430Z,75.64
2022-07-27T03:33:06.051Z,75.81
2022-07-27T03:35:35.009Z,76.45
2022-07-27T03:38:04.018Z,76.77
2022-07-27T03:40:33.675Z,76.14
2022-07-27T03:43:03.353Z,76.56
2022-07-27T03:45:31.082Z,75.82
2022-07-27T03:47:59.673Z,75.19
2022-07-27T03:50:28.402Z,75.61
2022-07-27T03:52:56.581Z,75.59
2022-07-27T03:55:25.806Z,74.51
2022-07-27T03:57:54.907Z,75.27
2022-07-27T04:00:23.842Z,74.74
2022-07-27T04:02:52.519Z,74.71
2022-07-27T04:05:21.297Z,74.00
2022-07-27T04:07:52.123Z,74.88
2022-07-27T04:10:29.266Z,73.98
2022-07-27T04:13:00.407Z,74.47
2022-07-27T04:15:29.493Z,72.96
2022-07-27T04:17:58.197Z,72.68
2022-07-27T04:20:27.191Z,72.92
2022-07-27T04:22:55.514Z,71.91
2022-07-27T04:25:23.394Z,71.56
2022-07-27T04:27:54.828Z,71.83
2022-07-27T04:30:23.566Z,71.63
2022-07-27T04:32:52.872Z,71.28
2022-07-27T04:35:26.360Z,70.82
2022-07-27T04:37:58.399Z,67.35
2022-07-27T04:40:34.026Z,68.96
2022-07-27T04:43:05.092Z,69.29
2022-07-27T04:45:34.597Z,69.42
2022-07-27T04:48:09.427Z,68.84
2022-07-27T04:50:43.873Z,68.59
2022-07-27T04:53:13.650Z,69.05
2022-07-27T04:55:47.099Z,69.07
2022-07-27T04:58:16.358Z,68.03
2022-07-27T05:00:45.360Z,68.19
2022-07-27T05:03:14.082Z,68.26
2022-07-27T05:05:49.552Z,68.73
2022-07-27T05:08:20.035Z,69.10
2022-07-27T05:10:48.038Z,67.72
2022-07-27T05:13:16.848Z,66.99
2022-07-27T05:15:55.404Z,67.10
2022-07-27T05:18:25.881Z,65.10
2022-07-27T05:20:54.673Z,64.89
2022-07-27T05:23:22.410Z,65.09
2022-07-27T05:25:52.012Z,64.63
2022-07-27T05:28:19.779Z,63.78
2022-07-27T05:30:48.389Z,63.26
2022-07-27T05:33:17.366Z,63.29
2022-07-27T05:35:46.101Z,61.64
2022-07-27T05:38:14.810Z,61.46
2022-07-27T05:40:46.582Z,61.53
2022-07-27T05:43:15.483Z,59.69
2022-07-27T05:45:44.165Z,60.08
2022-07-27T05:48:13.813Z,59.37
2022-07-27T05:50:42.252Z,58.79
2022-07-27T05:53:10.724Z,58.08
2022-07-27T05:55:39.177Z,56.56
2022-07-27T05:58:29.678Z,55.60
2022-07-27T06:00:58.408Z,55.65
2022-07-27T06:03:27.569Z,54.44
2022-07-27T06:06:16.118Z,54.25
2022-07-27T06:08:45.056Z,53.69
2022-07-27T06:11:14.666Z,53.16
2022-07-27T06:13:44.973Z,53.07
2022-07-27T06:16:13.616Z,53.42
2022-07-27T06:18:42.095Z,53.86
2022-07-27T06:21:10.816Z,53.25
2022-07-27T06:23:39.241Z,52.91
2022-07-27T06:26:08.034Z,52.44
2022-07-27T06:28:36.540Z,52.81
2022-07-27T06:31:06.462Z,54.21
2022-07-27T06:33:35.503Z,53.67
2022-07-27T06:36:05.860Z,52.89
2022-07-27T06:38:34.577Z,53.40
2022-07-27T06:41:03.410Z,51.66
2022-07-27T06:43:33.485Z,51.80
2022-07-27T06:46:04.138Z,49.90
2022-07-27T06:48:34.413Z,50.74
2022-07-27T06:51:02.837Z,49.91
2022-07-27T06:53:34.723Z,49.09
2022-07-27T06:56:05.793Z,48.35
2022-07-27T06:58:37.686Z,47.77
2022-07-27T07:01:06.404Z,47.53
2022-07-27T07:03:35.011Z,46.78
2022-07-27T07:06:03.689Z,47.50
2022-07-27T07:08:32.283Z,46.29
2022-07-27T07:11:00.694Z,46.32
2022-07-27T07:13:29.179Z,45.17
2022-07-27T07:15:57.770Z,45.05
2022-07-27T07:18:26.377Z,45.93
2022-07-27T07:20:54.977Z,44.42
2022-07-27T07:23:23.715Z,44.79
2022-07-27T07:25:52.511Z,44.41
2022-07-27T07:28:22.441Z,44.75
2022-07-27T07:30:51.156Z,43.24
2022-07-27T07:33:19.720Z,43.85
2022-07-27T07:36:14.192Z,43.90
2022-07-27T07:38:36.798Z,43.43
2022-07-27T07:41:06.178Z,43.31
2022-07-27T07:43:36.838Z,43.94
2022-07-27T07:46:06.442Z,42.07
2022-07-27T07:48:35.596Z,43.87
2022-07-27T07:51:04.134Z,42.26
2022-07-27T07:53:36.621Z,44.31
2022-07-27T07:56:09.651Z,45.66
2022-07-27T07:58:38.652Z,44.43
2022-07-27T08:01:07.186Z,45.28
2022-07-27T08:03:35.916Z,45.56
2022-07-27T08:06:05.018Z,44.15
2022-07-27T08:08:33.538Z,44.57
2022-07-27T08:11:02.106Z,43.86
2022-07-27T08:13:30.604Z,44.78
2022-07-27T08:15:59.728Z,44.94
2022-07-27T08:18:28.238Z,42.20
2022-07-27T08:20:56.714Z,44.43
2022-07-27T08:23:26.968Z,42.66
2022-07-27T08:25:55.634Z,44.73
2022-07-27T08:28:24.193Z,43.01
2022-07-27T08:30:52.863Z,43.49
2022-07-27T08:33:21.745Z,42.35
2022-07-27T08:35:50.381Z,42.11
2022-07-27T08:38:18.971Z,42.05
2022-07-27T08:40:49.843Z,42.74
2022-07-27T08:43:24.930Z,42.40
2022-07-27T08:46:01.131Z,40.81
2022-07-27T08:48:32.068Z,41.95
2022-07-27T08:51:00.767Z,40.99
2022-07-27T08:53:52.454Z,40.48
2022-07-27T08:56:22.236Z,39.15
2022-07-27T08:58:50.803Z,40.04
2022-07-27T09:01:19.978Z,41.15
2022-07-27T09:03:48.556Z,40.23
2022-07-27T09:06:53.184Z,38.64
2022-07-27T09:09:23.403Z,38.28
2022-07-27T09:12:09.447Z,38.33
2022-07-27T09:14:41.272Z,38.58
2022-07-27T09:17:48.071Z,38.17
2022-07-27T09:20:21.096Z,38.13
2022-07-27T09:22:56.330Z,37.15
2022-07-27T09:26:01.631Z,36.18
2022-07-27T09:28:33.461Z,36.16
2022-07-27T09:31:16.625Z,36.26
2022-07-27T09:33:50.326Z,35.37
2022-07-27T09:36:23.931Z,34.76
2022-07-27T09:39:03.324Z,35.17
2022-07-27T09:41:45.930Z,33.92
2022-07-27T09:44:33.051Z,32.88
2022-07-27T09:47:27.338Z,33.28
2022-07-27T09:50:30.042Z,32.63
2022-07-27T09:53:42.532Z,32.51
2022-07-27T09:56:16.428Z,32.95
2022-07-27T09:58:52.207Z,33.16
2022-07-27T10:01:31.270Z,33.29
2022-07-27T10:07:01.596Z,31.98
2022-07-27T10:09:32.279Z,31.57
2022-07-27T10:12:02.008Z,30.76
2022-07-27T10:14:30.782Z,30.67
2022-07-27T10:16:59.330Z,30.89
2022-07-27T10:19:51.142Z,30.15
2022-07-27T10:22:59.396Z,30.29
2022-07-27T10:25:35.999Z,30.89
2022-07-27T10:28:17.884Z,29.91
2022-07-27T10:30:52.194Z,29.37
2022-07-27T10:33:46.612Z,29.64
2022-07-27T10:36:51.768Z,28.32
2022-07-27T10:39:34.766Z,29.01
2022-07-27T10:42:39.249Z,28.38
2022-07-27T10:45:18.043Z,29.84
2022-07-27T10:47:52.578Z,29.32
2022-07-27T10:50:30.054Z,28.83
2022-07-27T10:53:05.884Z,29.60
2022-07-27T10:55:35.496Z,28.75
2022-07-27T10:58:10.718Z,29.30
2022-07-27T11:00:55.108Z,29.81
2022-07-27T11:03:42.649Z,28.77
2022-07-27T11:06:33.138Z,29.48
2022-07-27T11:11:56.639Z,29.13
2022-07-27T11:14:31.649Z,29.49
2022-07-27T11:17:32.355Z,28.27
2022-07-27T11:20:02.272Z,28.96
2022-07-27T11:23:09.074Z,28.60
2022-07-27T11:25:28.486Z,29.30
2022-07-27T11:27:57.064Z,28.32
2022-07-27T11:30:29.141Z,27.52
2022-07-27T11:33:04.067Z,25.83
2022-07-27T11:35:33.816Z,26.37
2022-07-27T11:38:06.696Z,26.59
2022-07-27T11:41:07.253Z,26.45
2022-07-27T11:43:45.576Z,26.58
2022-07-27T11:46:28.527Z,26.78
2022-07-27T11:49:26.919Z,25.15
2022-07-27T11:52:07.863Z,24.59
2022-07-27T11:54:41.455Z,25.19
2022-07-27T11:57:17.047Z,24.41
2022-07-27T11:59:46.593Z,24.69
2022-07-27T12:02:22.291Z,23.92
2022-07-27T12:04:54.395Z,23.41
2022-07-27T12:07:33.831Z,24.00
2022-07-27T12:10:09.846Z,24.44
2022-07-27T12:12:38.825Z,23.76
2022-07-27T12:15:45.781Z,22.63
2022-07-27T12:18:09.119Z,22.84
2022-07-27T12:20:37.935Z,23.68
2022-07-27T12:23:10.131Z,24.19
2022-07-27T12:25:41.355Z,23.35
2022-07-27T12:28:18.004Z,23.61
2022-07-27T12:30:51.838Z,22.96
2022-07-27T12:33:38.163Z,24.41
2022-07-27T12:36:10.413Z,23.66
2022-07-27T12:38:51.503Z,24.13
2022-07-27T12:41:29.659Z,24.34
2022-07-27T12:44:17.157Z,24.00
2022-07-27T12:47:02.485Z,24.32
2022-07-27T12:49:35.242Z,24.36
2022-07-27T12:52:11.228Z,24.36
2022-07-27T12:54:39.664Z,24.16
2022-07-27T12:57:10.672Z,24.16
2022-07-27T12:59:39.228Z,24.28
2022-07-27T13:02:07.641Z,23.90
2022-07-27T13:04:36.121Z,23.69
2022-07-27T13:07:04.614Z,24.68
2022-07-27T13:10:02.322Z,24.12
2022-07-27T13:12:25.203Z,24.37
2022-07-27T13:14:53.779Z,24.43
2022-07-27T13:17:22.326Z,23.62
2022-07-27T13:19:50.929Z,23.50
2022-07-27T13:22:20.547Z,23.69
2022-07-27T13:24:50.169Z,23.49
2022-07-27T13:27:19.740Z,24.29
2022-07-27T13:29:48.272Z,24.16
2022-07-27T13:32:18.295Z,24.23
2022-07-27T13:34:48.298Z,24.56
2022-07-27T13:37:17.028Z,25.05
2022-07-27T13:39:45.709Z,25.17
2022-07-27T13:42:15.424Z,23.78
2022-07-27T13:45:03.905Z,24.87
2022-07-27T13:47:32.920Z,25.23
2022-07-27T13:50:01.463Z,24.97
2022-07-27T13:52:29.894Z,24.88
2022-07-27T13:54:58.454Z,25.58
2022-07-27T13:57:26.983Z,25.15
2022-07-27T13:59:57.760Z,24.14
2022-07-27T14:02:26.289Z,24.00
2022-07-27T14:04:54.697Z,24.97
2022-07-27T14:07:28.398Z,24.22
2022-07-27T14:10:15.822Z,24.35
2022-07-27T14:12:44.334Z,24.22
2022-07-27T14:15:12.832Z,24.64
2022-07-27T14:17:41.723Z,23.93
2022-07-27T14:20:12.342Z,24.03
2022-07-27T14:22:40.812Z,23.97
2022-07-27T14:25:09.693Z,24.30
2022-07-27T14:27:39.543Z,24.25
2022-07-27T14:30:10.056Z,24.67
2022-07-27T14:32:39.557Z,23.82
2022-07-27T14:35:09.693Z,23.98
2022-07-27T14:37:39.185Z,24.28
2022-07-27T14:40:09.946Z,24.07
2022-07-27T14:42:41.862Z,24.33
2022-07-27T14:45:11.755Z,24.27
2022-07-27T14:47:40.251Z,24.83
2022-07-27T14:50:09.714Z,24.92
2022-07-27T14:52:38.454Z,24.29
2022-07-27T14:55:08.124Z,24.25
2022-07-27T14:57:37.127Z,23.75
2022-07-27T15:00:10.741Z,23.87
2022-07-27T15:02:39.866Z,24.35
2022-07-27T15:05:09.659Z,23.57
2022-07-27T15:07:40.161Z,23.32
2022-07-27T15:10:10.529Z,23.91
2022-07-27T15:12:39.826Z,23.30
2022-07-27T15:15:10.287Z,23.98
2022-07-27T15:17:39.335Z,23.80
2022-07-27T15:20:09.940Z,23.67
2022-07-27T15:22:38.368Z,23.69
2022-07-27T15:25:12.153Z,23.93
2022-07-27T15:27:40.909Z,24.41
2022-07-27T15:30:09.984Z,24.74
2022-07-27T15:32:38.508Z,24.47
2022-07-27T15:35:07.336Z,23.64
2022-07-27T15:37:35.765Z,23.99
2022-07-27T15:40:24.120Z,24.64
2022-07-27T15:42:52.526Z,23.93
2022-07-27T15:45:20.994Z,24.67
2022-07-27T15:47:52.602Z,23.81
2022-07-27T15:50:22.529Z,23.49
2022-07-27T15:52:51.214Z,24.15
2022-07-27T15:55:19.659Z,24.08
2022-07-27T15:57:49.647Z,24.11
2022-07-27T16:00:18.454Z,24.65
2022-07-27T16:02:48.163Z,24.25
2022-07-27T16:05:17.877Z,23.63
2022-07-27T16:07:47.410Z,24.08
2022-07-27T16:10:16.017Z,24.12
2022-07-27T16:12:44.603Z,24.69
2022-07-27T16:15:13.036Z,24.66
2022-07-27T16:17:41.433Z,24.14
2022-07-27T16:20:10.761Z,23.75
2022-07-27T16:22:39.627Z,25.02
2022-07-27T16:25:08.507Z,24.59
2022-07-27T16:27:36.931Z,25.44
2022-07-27T16:30:06.360Z,27.31
2022-07-27T16:32:34.740Z,27.82
2022-07-27T16:35:03.273Z,27.60
2022-07-27T16:37:39.080Z,26.72
2022-07-27T16:40:08.512Z,27.54
2022-07-27T16:42:38.154Z,26.92
2022-07-27T16:45:09.255Z,28.70
2022-07-27T16:47:38.880Z,29.04
2022-07-27T16:50:09.338Z,28.68
2022-07-27T16:52:37.834Z,28.87
2022-07-27T16:55:07.102Z,29.38
2022-07-27T16:57:35.506Z,28.73
2022-07-27T17:00:07.667Z,28.72
2022-07-27T17:02:38.082Z,29.58
2022-07-27T17:05:09.833Z,29.65
2022-07-27T17:07:38.257Z,28.97
2022-07-27T17:10:08.628Z,29.75
2022-07-27T17:12:38.543Z,29.79
2022-07-27T17:15:09.297Z,30.26
2022-07-27T17:17:37.862Z,30.01
2022-07-27T17:20:07.360Z,30.27
2022-07-27T17:22:35.860Z,29.83
2022-07-27T17:25:07.286Z,29.92
2022-07-27T17:27:36.124Z,30.74
2022-07-27T17:30:07.296Z,29.61
2022-07-27T17:32:37.975Z,29.72
2022-07-27T17:35:08.322Z,31.23
2022-07-27T17:38:03.334Z,30.93
2022-07-27T17:40:26.583Z,31.62
2022-07-27T17:42:55.218Z,31.58
2022-07-27T17:45:23.818Z,31.80
2022-07-27T17:47:52.280Z,31.67
2022-07-27T17:50:21.391Z,30.74
2022-07-27T17:52:49.879Z,31.45
2022-07-27T17:55:18.511Z,31.03
2022-07-27T17:57:47.000Z,31.35
2022-07-27T18:00:16.323Z,31.60
2022-07-27T18:02:45.039Z,31.36
2022-07-27T18:05:13.941Z,32.31
2022-07-27T18:07:42.483Z,32.31
2022-07-27T18:10:10.932Z,33.36
2022-07-27T18:12:39.380Z,33.85
2022-07-27T18:15:28.045Z,36.08
2022-07-27T18:17:56.578Z,37.63
2022-07-27T18:20:25.168Z,37.30
2022-07-27T18:22:53.557Z,37.24
2022-07-27T18:25:22.371Z,38.51
2022-07-27T18:27:51.542Z,40.52
2022-07-27T18:30:20.001Z,40.01
2022-07-27T18:32:48.435Z,40.54
2022-07-27T18:35:17.073Z,37.68
2022-07-27T18:37:46.753Z,37.42
2022-07-27T18:40:16.573Z,37.69
2022-07-27T18:42:46.113Z,38.49
2022-07-27T18:45:14.522Z,38.25
2022-07-27T18:47:49.357Z,38.43
2022-07-27T18:50:18.302Z,38.53
2022-07-27T18:52:48.055Z,38.75
2022-07-27T18:55:21.291Z,38.84
2022-07-27T18:57:58.229Z,38.79
2022-07-27T19:00:28.151Z,38.16
2022-07-27T19:02:58.514Z,39.45
2022-07-27T19:05:40.499Z,40.03
2022-07-27T19:08:13.835Z,40.27
2022-07-27T19:10:44.379Z,39.79
2022-07-27T19:13:14.163Z,40.79
2022-07-27T19:15:43.431Z,41.28
2022-07-27T19:18:11.847Z,40.93
2022-07-27T19:20:41.526Z,41.70
2022-07-27T19:23:12.387Z,41.78
2022-07-27T19:25:41.053Z,42.60
2022-07-27T19:28:09.684Z,42.73
2022-07-27T19:30:38.977Z,42.74
2022-07-27T19:33:07.573Z,42.48
2022-07-27T19:35:36.281Z,43.16
2022-07-27T19:38:08.628Z,43.20
2022-07-27T19:40:45.907Z,43.80
2022-07-27T19:43:15.589Z,44.27
2022-07-27T19:45:44.323Z,44.46
2022-07-27T19:48:13.869Z,44.34
2022-07-27T19:50:43.395Z,43.51
2022-07-27T19:53:12.179Z,44.01
2022-07-27T19:55:40.755Z,43.41
2022-07-27T19:58:09.254Z,44.12
2022-07-27T20:00:37.996Z,44.33
2022-07-27T20:03:07.609Z,44.25
2022-07-27T20:05:36.688Z,44.59
2022-07-27T20:08:05.823Z,44.71
2022-07-27T20:10:34.424Z,44.58
2022-07-27T20:13:02.899Z,44.88
2022-07-27T20:15:33.383Z,45.45
2022-07-27T20:18:02.202Z,45.28
2022-07-27T20:20:31.357Z,45.94
2022-07-27T20:22:59.868Z,46.30
2022-07-27T20:25:28.493Z,46.68
2022-07-27T20:27:57.354Z,47.88
2022-07-27T20:30:26.554Z,47.34
2022-07-27T20:32:55.136Z,47.62
2022-07-27T20:35:23.755Z,48.28
2022-07-27T20:38:06.113Z,47.47
2022-07-27T20:40:34.676Z,48.40
2022-07-27T20:43:03.262Z,48.00
2022-07-27T20:45:31.872Z,48.77
2022-07-27T20:48:00.577Z,49.16
2022-07-27T20:50:29.376Z,49.02
2022-07-27T20:52:58.372Z,50.25
2022-07-27T20:55:27.001Z,49.46
2022-07-27T20:57:55.596Z,49.91
2022-07-27T21:00:28.932Z,50.15
2022-07-27T21:02:57.926Z,51.13
2022-07-27T21:05:28.351Z,51.01
2022-07-27T21:07:57.398Z,51.56
2022-07-27T21:10:26.256Z,51.29
2022-07-27T21:12:54.844Z,51.56
2022-07-27T21:15:23.496Z,51.21
2022-07-27T21:18:03.265Z,51.59
2022-07-27T21:20:31.984Z,51.65
2022-07-27T21:23:19.176Z,51.57
2022-07-27T21:25:47.692Z,51.00
2022-07-27T21:28:18.545Z,51.66
2022-07-27T21:30:47.333Z,51.39
2022-07-27T21:33:15.944Z,52.14
2022-07-27T21:35:44.423Z,52.48
2022-07-27T21:38:13.010Z,52.16
2022-07-27T21:40:41.520Z,52.03
2022-07-27T21:43:10.094Z,52.02
2022-07-27T21:45:38.692Z,52.10
2022-07-27T21:48:16.298Z,52.91
2022-07-27T21:50:44.867Z,53.47
2022-07-27T21:53:13.395Z,52.63
2022-07-27T21:55:41.976Z,52.42
2022-07-27T21:58:12.410Z,52.46
2022-07-27T22:00:41.145Z,52.42
2022-07-27T22:03:10.489Z,52.26
2022-07-27T22:05:39.957Z,51.36
2022-07-27T22:08:08.475Z,52.01
2022-07-27T22:10:37.104Z,51.11
2022-07-27T22:13:06.221Z,51.41
2022-07-27T22:15:34.751Z,51.59
2022-07-27T22:18:03.314Z,50.91
2022-07-27T22:20:31.940Z,51.29
2022-07-27T22:23:00.535Z,51.28
2022-07-27T22:25:29.333Z,51.26
2022-07-27T22:27:57.872Z,51.18
2022-07-27T22:30:27.560Z,51.42
2022-07-27T22:32:57.266Z,51.20
2022-07-27T22:35:26.032Z,51.58
2022-07-27T22:37:55.126Z,51.91
2022-07-27T22:40:24.600Z,52.40
2022-07-27T22:42:53.156Z,53.31
2022-07-27T22:45:22.077Z,53.59
2022-07-27T22:47:50.644Z,53.75
2022-07-27T22:50:21.890Z,54.38
2022-07-27T22:52:52.674Z,54.39
2022-07-27T22:55:22.058Z,54.36
2022-07-27T22:57:50.538Z,55.45
2022-07-27T23:00:19.259Z,56.48
2022-07-27T23:02:48.534Z,56.40
2022-07-27T23:05:17.112Z,57.04
2022-07-27T23:07:45.802Z,57.58
2022-07-27T23:10:33.217Z,57.79
2022-07-27T23:13:01.801Z,58.10
2022-07-27T23:15:31.550Z,58.95
2022-07-27T23:18:00.238Z,59.20
2022-07-27T23:20:29.197Z,59.82
2022-07-27T23:22:57.884Z,59.72
2022-07-27T23:25:36.223Z,59.85
2022-07-27T23:28:06.698Z,60.10
2022-07-27T23:30:35.368Z,59.89
2022-07-27T23:33:04.381Z,60.79
2022-07-27T23:35:33.758Z,61.24
2022-07-27T23:38:02.335Z,61.03
2022-07-27T23:40:31.101Z,60.57
2022-07-27T23:42:59.888Z,61.18
2022-07-27T23:45:28.998Z,60.92
2022-07-27T23:47:57.751Z,62.10
2022-07-27T23:50:26.324Z,61.95
2022-07-27T23:52:54.991Z,61.59
2022-07-27T23:55:23.493Z,62.32
2022-07-27T23:57:55.407Z,62.28
